Terminal Aerodrome Forecast
Issued by NWS Wakefield, VA

Home | Current Version | Previous Version | Text Only | Print | Product List | Glossary On
Versions: 1 2 3 4 5 6 7 8 9 10 11 12 13 14 15 16
199
FTUS41 KAKQ 222329
TAFSBY
TAF
KSBY 222329Z 2300/2324 36013KT P6SM SKC
     FM230400 36008KT P6SM SKC
     FM230800 01005KT P6SM SKC
     FM231800 VRB05KT P6SM SKC=

USA.gov is the U.S. government's official web portal to all federal, state and local government web resources and services.